Terminal Aerodrome Forecast
Issued by NWS

Home | Current Version | Previous Version | Text Only | Print | Product List | Glossary On
Versions: 1 2 3 4 5 6 7 8 9 10 11 12 13
000
FTUS45 KLKN 300536
TAFTPH
TAF
KTPH 300536Z 3006/3106 35008KT P6SM FEW090
     FM301730 32030G40KT 4SM BLDU VCSH SCT040 BKN080
     FM301900 33050G60KT 3SM BLDU VCSH BKN060
     FM310300 34040G50KT 5SM BLDU VCSH BKN060=

USA.gov is the U.S. government's official web portal to all federal, state and local government web resources and services.